createdAt,value
2023-04-15T00:01:22.672Z,33.60
2023-04-15T00:03:56.736Z,33.33
2023-04-15T00:06:32.041Z,32.17
2023-04-15T00:09:07.218Z,33.13
2023-04-15T00:11:53.604Z,32.60
2023-04-15T00:14:26.631Z,34.07
2023-04-15T00:17:02.385Z,34.20
2023-04-15T00:19:35.226Z,35.13
2023-04-15T00:22:08.055Z,33.90
2023-04-15T00:24:41.061Z,32.13
2023-04-15T00:27:17.531Z,34.60
2023-04-15T00:29:50.265Z,35.03
2023-04-15T00:32:23.500Z,36.13
2023-04-15T00:34:59.352Z,36.57
2023-04-15T00:37:35.403Z,35.93
2023-04-15T00:40:15.737Z,37.97
2023-04-15T00:42:49.966Z,36.27
2023-04-15T00:45:22.695Z,36.97
2023-04-15T00:47:57.422Z,34.33
2023-04-15T00:50:33.020Z,38.00
2023-04-15T00:53:05.779Z,37.63
2023-04-15T00:55:40.682Z,36.50
2023-04-15T00:58:17.641Z,38.00
2023-04-15T01:00:54.187Z,38.93
2023-04-15T01:03:27.095Z,40.97
2023-04-15T01:06:02.990Z,38.60
2023-04-15T01:08:39.001Z,37.37
2023-04-15T01:11:11.858Z,39.27
2023-04-15T01:13:46.542Z,38.23
2023-04-15T01:16:19.419Z,38.90
2023-04-15T01:18:52.693Z,40.93
2023-04-15T01:21:25.471Z,40.07
2023-04-15T01:23:58.775Z,39.77
2023-04-15T01:26:35.474Z,39.10
2023-04-15T01:29:08.493Z,42.43
2023-04-15T01:31:41.352Z,45.83
2023-04-15T01:34:14.061Z,41.00
2023-04-15T01:36:46.917Z,43.87
2023-04-15T01:39:19.788Z,40.43
2023-04-15T01:41:56.062Z,43.87
2023-04-15T01:44:29.348Z,45.40
2023-04-15T01:47:02.195Z,43.90
2023-04-15T01:49:35.164Z,44.47
2023-04-15T01:52:08.084Z,45.93
2023-04-15T01:54:40.980Z,45.10
2023-04-15T01:57:15.158Z,49.67
2023-04-15T01:59:47.931Z,46.43
2023-04-15T02:02:23.015Z,45.57
2023-04-15T02:05:00.889Z,44.77
2023-04-15T02:07:33.738Z,45.27
2023-04-15T02:10:06.854Z,43.63
2023-04-15T02:12:40.964Z,44.87
2023-04-15T02:15:13.772Z,41.80
2023-04-15T02:17:51.107Z,42.37
2023-04-15T02:20:26.349Z,41.17
2023-04-15T02:22:59.280Z,42.63
2023-04-15T02:25:32.122Z,42.23
2023-04-15T02:28:07.257Z,44.80
2023-04-15T02:30:40.868Z,44.10
2023-04-15T02:33:13.650Z,41.83
2023-04-15T02:35:46.620Z,45.97
2023-04-15T02:38:19.444Z,42.37
2023-04-15T02:40:52.424Z,41.93
2023-04-15T02:43:26.713Z,44.07
2023-04-15T02:46:02.174Z,44.23
2023-04-15T02:48:37.402Z,45.87
2023-04-15T02:51:14.337Z,46.63
2023-04-15T02:53:47.149Z,44.53
2023-04-15T02:56:19.968Z,49.43
2023-04-15T02:58:56.202Z,41.50
2023-04-15T03:01:31.363Z,43.10
2023-04-15T03:04:04.485Z,43.57
2023-04-15T03:06:37.467Z,42.00
2023-04-15T03:09:10.315Z,40.60
2023-04-15T03:11:43.297Z,41.17
2023-04-15T03:14:17.501Z,42.77
2023-04-15T03:16:50.618Z,42.67
2023-04-15T03:19:23.568Z,41.87
2023-04-15T03:21:56.549Z,40.17
2023-04-15T03:24:30.309Z,40.33
2023-04-15T03:27:03.419Z,41.53
2023-04-15T03:29:37.589Z,39.60
2023-04-15T03:32:11.299Z,42.73
2023-04-15T03:34:44.419Z,44.10
2023-04-15T03:37:17.166Z,41.07
2023-04-15T03:39:50.159Z,38.93
2023-04-15T03:42:28.557Z,41.53
2023-04-15T03:45:03.529Z,36.53
2023-04-15T03:47:36.390Z,36.87
2023-04-15T03:50:09.561Z,40.53
2023-04-15T03:52:42.569Z,39.77
2023-04-15T03:55:15.659Z,40.43
2023-04-15T03:57:48.630Z,37.33
2023-04-15T04:00:23.030Z,35.23
2023-04-15T04:02:56.234Z,39.37
2023-04-15T04:05:29.276Z,35.60
2023-04-15T04:08:02.106Z,37.40
2023-04-15T04:10:34.872Z,39.73
2023-04-15T04:13:07.864Z,34.80
2023-04-15T04:15:42.024Z,38.53
2023-04-15T04:18:14.770Z,36.83
2023-04-15T04:20:47.538Z,34.93
2023-04-15T04:23:20.328Z,39.00
2023-04-15T04:25:53.568Z,37.50
2023-04-15T04:28:26.309Z,33.50
2023-04-15T04:31:00.427Z,36.93
2023-04-15T04:33:33.300Z,35.63
2023-04-15T04:36:06.599Z,34.97
2023-04-15T04:38:39.377Z,37.47
2023-04-15T04:41:12.180Z,33.43
2023-04-15T04:43:45.182Z,33.63
2023-04-15T04:46:19.684Z,34.67
2023-04-15T04:48:52.530Z,34.03
2023-04-15T04:51:26.146Z,36.63
2023-04-15T04:53:59.074Z,35.97
2023-04-15T04:56:31.917Z,35.03
2023-04-15T04:59:04.862Z,33.10
2023-04-15T05:01:39.261Z,35.20
2023-04-15T05:04:12.329Z,32.03
2023-04-15T05:06:45.404Z,32.60
2023-04-15T05:09:18.190Z,31.60
2023-04-15T05:11:50.967Z,32.60
2023-04-15T05:14:27.189Z,31.07
2023-04-15T05:17:01.860Z,29.43
2023-04-15T05:19:34.844Z,33.77
2023-04-15T05:22:08.002Z,30.47
2023-04-15T05:24:41.063Z,28.00
2023-04-15T05:27:14.109Z,29.37
2023-04-15T05:29:46.912Z,27.60
2023-04-15T05:32:22.076Z,27.93
2023-04-15T05:34:54.994Z,32.30
2023-04-15T05:37:27.949Z,27.57
2023-04-15T05:40:01.126Z,24.80
2023-04-15T05:42:36.651Z,30.50
2023-04-15T05:45:10.092Z,27.13
2023-04-15T05:47:44.316Z,27.70
2023-04-15T05:50:17.239Z,27.60
2023-04-15T05:52:50.036Z,26.03
2023-04-15T05:55:23.229Z,27.30
2023-04-15T05:57:56.127Z,24.90
2023-04-15T06:00:33.711Z,26.17
2023-04-15T06:03:10.054Z,24.57
2023-04-15T06:05:45.074Z,24.10
2023-04-15T06:08:17.833Z,24.57
2023-04-15T06:10:50.655Z,23.07
2023-04-15T06:13:23.555Z,22.13
2023-04-15T06:15:56.966Z,23.97
2023-04-15T06:18:31.520Z,20.20
2023-04-15T06:21:04.293Z,20.67
2023-04-15T06:23:37.272Z,21.93
2023-04-15T06:26:10.146Z,21.57
2023-04-15T06:28:42.918Z,20.77
2023-04-15T06:31:16.145Z,19.70
2023-04-15T06:33:50.650Z,19.90
2023-04-15T06:36:23.495Z,20.40
2023-04-15T06:38:56.641Z,19.80
2023-04-15T06:41:29.481Z,17.57
2023-04-15T06:44:04.395Z,21.17
2023-04-15T06:46:39.530Z,16.80
2023-04-15T06:49:16.039Z,17.40
2023-04-15T06:51:49.056Z,16.47
2023-04-15T06:54:24.253Z,16.83
2023-04-15T06:56:57.052Z,14.67
2023-04-15T06:59:29.958Z,15.23
2023-04-15T07:02:05.293Z,15.83
2023-04-15T07:04:41.901Z,15.40
2023-04-15T07:07:15.292Z,16.10
2023-04-15T07:09:51.011Z,15.47
2023-04-15T07:12:23.830Z,15.63
2023-04-15T07:14:56.561Z,13.13
2023-04-15T07:17:29.439Z,13.43
2023-04-15T07:20:04.453Z,14.80
2023-04-15T07:22:37.158Z,15.43
2023-04-15T07:25:10.299Z,13.73
2023-04-15T07:27:43.072Z,15.37
2023-04-15T07:30:16.036Z,16.03
2023-04-15T07:32:48.936Z,14.40
2023-04-15T07:35:23.427Z,13.80
2023-04-15T07:37:56.291Z,14.20
2023-04-15T07:40:29.103Z,14.23
2023-04-15T07:43:02.662Z,20.10
2023-04-15T07:45:35.571Z,14.80
2023-04-15T07:48:08.423Z,15.60
2023-04-15T07:50:42.839Z,16.00
2023-04-15T07:53:15.647Z,14.80
2023-04-15T07:55:51.297Z,15.07
2023-04-15T07:58:24.352Z,15.10
2023-04-15T08:00:57.216Z,15.57
2023-04-15T08:03:30.040Z,16.03
2023-04-15T08:06:04.456Z,16.60
2023-04-15T08:08:37.590Z,15.70
2023-04-15T08:11:10.845Z,16.27
2023-04-15T08:13:43.703Z,15.07
2023-04-15T08:16:20.457Z,15.03
2023-04-15T08:18:53.804Z,15.43
2023-04-15T08:21:31.892Z,17.23
2023-04-15T08:24:04.923Z,15.57
2023-04-15T08:26:37.780Z,15.80
2023-04-15T08:29:10.784Z,16.37
2023-04-15T08:31:43.763Z,15.73
2023-04-15T08:34:16.741Z,14.97
2023-04-15T08:36:51.070Z,15.73
2023-04-15T08:39:24.026Z,16.27
2023-04-15T08:41:58.190Z,16.60
2023-04-15T08:44:31.851Z,16.43
2023-04-15T08:47:06.234Z,15.43
2023-04-15T08:49:41.057Z,17.77
2023-04-15T08:52:15.419Z,17.87
2023-04-15T08:54:49.009Z,16.87
2023-04-15T08:57:21.819Z,17.10
2023-04-15T08:59:54.882Z,16.83
2023-04-15T09:02:28.502Z,17.70
2023-04-15T09:05:04.974Z,16.13
2023-04-15T09:07:39.193Z,17.60
2023-04-15T09:10:12.747Z,16.13
2023-04-15T09:12:46.003Z,16.63
2023-04-15T09:15:19.274Z,16.67
2023-04-15T09:17:52.500Z,16.87
2023-04-15T09:20:25.477Z,19.20
2023-04-15T09:22:59.804Z,16.00
2023-04-15T09:25:34.765Z,16.17
2023-04-15T09:28:07.780Z,16.10
2023-04-15T09:30:46.216Z,16.40
2023-04-15T09:33:19.348Z,15.90
2023-04-15T09:36:00.044Z,15.83
2023-04-15T09:38:34.265Z,16.63
2023-04-15T09:41:19.596Z,15.47
2023-04-15T09:43:52.541Z,16.37
2023-04-15T09:46:40.247Z,16.07
2023-04-15T09:49:13.406Z,15.10
2023-04-15T09:52:01.408Z,16.03
2023-04-15T09:54:39.299Z,16.27
2023-04-15T09:57:12.276Z,16.67
2023-04-15T09:59:45.089Z,16.07
2023-04-15T10:02:19.575Z,16.07
2023-04-15T10:04:53.769Z,17.13
2023-04-15T10:07:26.839Z,16.00
2023-04-15T10:10:02.055Z,15.63
2023-04-15T10:12:35.369Z,17.63
2023-04-15T10:15:11.146Z,18.50
2023-04-15T10:17:45.259Z,16.53
2023-04-15T10:20:21.015Z,16.13
2023-04-15T10:22:56.051Z,17.73
2023-04-15T10:25:30.728Z,16.47
2023-04-15T10:28:03.731Z,16.30
2023-04-15T10:30:37.860Z,16.00
2023-04-15T10:33:11.153Z,17.87
2023-04-15T10:35:44.977Z,16.30
2023-04-15T10:38:34.160Z,17.27
2023-04-15T10:41:16.628Z,16.63
2023-04-15T10:43:52.892Z,17.27
2023-04-15T10:46:36.684Z,16.17
2023-04-15T10:49:11.080Z,16.87
2023-04-15T10:51:44.657Z,16.83
2023-04-15T10:54:18.073Z,17.47
2023-04-15T10:56:54.183Z,17.10
2023-04-15T10:59:27.309Z,16.53
2023-04-15T11:02:01.923Z,15.80
2023-04-15T11:04:54.076Z,17.00
2023-04-15T11:07:37.158Z,16.20
2023-04-15T11:10:28.810Z,15.67
2023-04-15T11:13:03.930Z,16.60
2023-04-15T11:15:37.970Z,16.33
2023-04-15T11:18:11.704Z,16.50
2023-04-15T11:20:46.147Z,15.90
2023-04-15T11:23:19.377Z,16.97
2023-04-15T11:25:54.909Z,16.10
2023-04-15T11:28:30.350Z,16.40
2023-04-15T11:31:07.361Z,15.27
2023-04-15T11:33:48.784Z,14.83
2023-04-15T11:36:21.782Z,14.70
2023-04-15T11:38:56.025Z,14.90
2023-04-15T11:41:29.172Z,16.03
2023-04-15T11:44:03.731Z,14.80
2023-04-15T11:46:37.209Z,14.73
2023-04-15T11:49:15.233Z,15.50
2023-04-15T11:51:48.352Z,14.17
2023-04-15T11:54:21.311Z,17.87
2023-04-15T11:56:54.748Z,15.97
2023-04-15T11:59:45.426Z,14.37
2023-04-15T12:02:18.943Z,14.77
2023-04-15T12:04:51.968Z,15.17
2023-04-15T12:07:25.685Z,14.20
2023-04-15T12:09:58.953Z,15.40
2023-04-15T12:12:32.401Z,15.57
2023-04-15T12:15:10.886Z,15.17
2023-04-15T12:17:50.930Z,15.37
2023-04-15T12:20:27.027Z,15.10
2023-04-15T12:23:07.057Z,15.07
2023-04-15T12:25:40.016Z,14.33
2023-04-15T12:28:12.967Z,14.47
2023-04-15T12:30:52.498Z,14.47
2023-04-15T12:33:25.972Z,14.50
2023-04-15T12:35:59.374Z,14.03
2023-04-15T12:38:32.551Z,15.43
2023-04-15T12:41:08.422Z,14.33
2023-04-15T12:43:42.225Z,15.27
2023-04-15T12:46:16.767Z,14.30
2023-04-15T12:48:49.618Z,14.47
2023-04-15T12:51:22.859Z,14.33
2023-04-15T12:53:55.426Z,14.90
2023-04-15T12:56:28.222Z,14.53
2023-04-15T12:59:03.400Z,16.20
2023-04-15T13:01:38.070Z,14.70
2023-04-15T13:04:13.834Z,13.97
2023-04-15T13:06:46.793Z,14.77
2023-04-15T13:09:19.772Z,14.10
2023-04-15T13:11:52.944Z,14.27
2023-04-15T13:14:27.161Z,14.07
2023-04-15T13:17:08.880Z,13.27
2023-04-15T13:19:41.800Z,14.67
2023-04-15T13:22:16.685Z,14.93
2023-04-15T13:24:49.652Z,13.10
2023-04-15T13:27:24.516Z,12.80
2023-04-15T13:29:57.496Z,12.80
2023-04-15T13:32:33.586Z,14.67
2023-04-15T13:35:11.792Z,13.30
2023-04-15T13:37:45.501Z,13.23
2023-04-15T13:40:18.325Z,14.63
2023-04-15T13:42:53.254Z,13.60
2023-04-15T13:45:27.286Z,14.10
2023-04-15T13:48:01.644Z,13.33
2023-04-15T13:50:35.977Z,14.33
2023-04-15T13:53:09.133Z,13.67
2023-04-15T13:55:42.885Z,14.57
2023-04-15T13:58:15.774Z,15.23
2023-04-15T14:00:49.458Z,14.87
2023-04-15T14:03:24.072Z,14.67
2023-04-15T14:05:58.178Z,13.97
2023-04-15T14:08:31.122Z,14.17
2023-04-15T14:11:04.090Z,15.63
2023-04-15T14:13:37.291Z,14.47
2023-04-15T14:16:10.305Z,15.17
2023-04-15T14:18:45.574Z,15.23
2023-04-15T14:21:18.501Z,14.40
2023-04-15T14:23:51.500Z,14.03
2023-04-15T14:26:24.293Z,14.50
2023-04-15T14:28:57.173Z,15.60
2023-04-15T14:31:30.758Z,15.47
2023-04-15T14:34:05.126Z,14.63
2023-04-15T14:36:38.158Z,14.03
2023-04-15T14:39:12.989Z,17.60
2023-04-15T14:41:45.872Z,13.23
2023-04-15T14:44:18.679Z,13.43
2023-04-15T14:46:52.069Z,13.33
2023-04-15T14:49:26.303Z,14.53
2023-04-15T14:51:59.190Z,12.17
2023-04-15T14:54:32.281Z,12.97
2023-04-15T14:57:05.382Z,11.33
2023-04-15T14:59:38.324Z,10.63
2023-04-15T15:02:17.288Z,10.83
2023-04-15T15:05:02.208Z,12.27
2023-04-15T15:07:36.145Z,12.37
2023-04-15T15:10:09.417Z,11.60
2023-04-15T15:12:42.412Z,11.80
2023-04-15T15:15:28.472Z,12.07
2023-04-15T15:18:01.964Z,11.90
2023-04-15T15:20:36.237Z,11.93
2023-04-15T15:23:09.120Z,11.50
2023-04-15T15:25:42.103Z,11.77
2023-04-15T15:28:15.132Z,11.77
2023-04-15T15:30:47.989Z,11.20
2023-04-15T15:33:21.110Z,13.07
2023-04-15T15:35:55.398Z,11.00
2023-04-15T15:38:29.081Z,10.87
2023-04-15T15:41:02.053Z,10.90
2023-04-15T15:43:35.153Z,10.20
2023-04-15T15:46:08.148Z,11.53
2023-04-15T15:48:41.231Z,11.00
2023-04-15T15:51:15.462Z,11.00
2023-04-15T15:53:55.900Z,10.47
2023-04-15T15:56:28.893Z,10.20
2023-04-15T15:59:01.759Z,10.37
2023-04-15T16:01:34.751Z,10.63
2023-04-15T16:04:07.966Z,9.20
2023-04-15T16:06:44.512Z,9.50
2023-04-15T16:09:17.459Z,10.33
2023-04-15T16:11:50.346Z,9.50
2023-04-15T16:14:23.362Z,11.20
2023-04-15T16:16:57.287Z,10.77
2023-04-15T16:19:37.628Z,10.67
2023-04-15T16:22:11.827Z,9.60
2023-04-15T16:24:44.725Z,10.17
2023-04-15T16:27:17.529Z,9.93
2023-04-15T16:29:50.258Z,9.97
2023-04-15T16:32:23.103Z,11.00
2023-04-15T16:34:56.758Z,10.27
2023-04-15T16:37:31.407Z,10.00
2023-04-15T16:40:04.620Z,10.50
2023-04-15T16:42:43.375Z,9.77
2023-04-15T16:45:16.315Z,11.23
2023-04-15T16:47:49.081Z,11.70
2023-04-15T16:50:22.079Z,11.90
2023-04-15T16:52:56.417Z,12.47
2023-04-15T16:55:29.649Z,12.57
2023-04-15T16:58:04.645Z,12.23
2023-04-15T17:00:40.363Z,13.40
2023-04-15T17:03:13.297Z,13.60
2023-04-15T17:05:46.400Z,13.37
2023-04-15T17:08:20.562Z,12.13
2023-04-15T17:10:55.035Z,12.40
2023-04-15T17:13:27.677Z,12.80
2023-04-15T17:16:00.575Z,12.73
2023-04-15T17:18:35.889Z,12.10
2023-04-15T17:21:08.663Z,12.23
2023-04-15T17:23:42.794Z,12.40
2023-04-15T17:26:18.179Z,11.90
2023-04-15T17:28:51.060Z,11.10
2023-04-15T17:31:23.886Z,11.60
2023-04-15T17:34:04.571Z,10.67
2023-04-15T17:36:42.369Z,11.33
2023-04-15T17:39:16.777Z,10.50
2023-04-15T17:41:49.560Z,10.37
2023-04-15T17:44:25.476Z,10.80
2023-04-15T17:46:58.612Z,10.80
2023-04-15T17:49:34.062Z,10.80
2023-04-15T17:52:07.009Z,10.33
2023-04-15T17:54:42.164Z,10.93
2023-04-15T17:57:15.134Z,11.27
2023-04-15T17:59:48.757Z,10.50
2023-04-15T18:02:22.500Z,11.83
2023-04-15T18:04:55.528Z,11.10
2023-04-15T18:07:28.563Z,11.60
2023-04-15T18:10:02.694Z,10.93
2023-04-15T18:12:35.438Z,12.67
2023-04-15T18:15:09.452Z,11.93
2023-04-15T18:17:42.223Z,13.03
2023-04-15T18:20:15.349Z,12.70
2023-04-15T18:22:48.180Z,12.90
2023-04-15T18:25:22.278Z,15.17
2023-04-15T18:27:55.502Z,14.27
2023-04-15T18:30:28.289Z,15.43
2023-04-15T18:33:01.254Z,19.00
2023-04-15T18:35:35.237Z,16.93
2023-04-15T18:38:08.747Z,15.20
2023-04-15T18:40:42.919Z,16.43
2023-04-15T18:43:15.860Z,15.13
2023-04-15T18:45:48.590Z,15.00
2023-04-15T18:48:21.483Z,14.30
2023-04-15T18:50:54.384Z,15.27
2023-04-15T18:53:28.035Z,14.97
2023-04-15T18:56:05.234Z,16.40
2023-04-15T18:59:09.706Z,15.40
2023-04-15T19:01:32.770Z,15.93
2023-04-15T19:04:06.507Z,16.63
2023-04-15T19:06:41.778Z,19.07
2023-04-15T19:09:15.070Z,19.40
2023-04-15T19:11:49.200Z,18.03
2023-04-15T19:14:22.011Z,18.10
2023-04-15T19:16:54.835Z,18.00
2023-04-15T19:19:29.348Z,18.53
2023-04-15T19:22:03.344Z,18.83
2023-04-15T19:24:36.560Z,20.20
2023-04-15T19:27:10.640Z,20.10
2023-04-15T19:29:43.444Z,19.23
2023-04-15T19:32:16.295Z,20.57
2023-04-15T19:34:49.274Z,20.40
2023-04-15T19:37:22.076Z,20.80
2023-04-15T19:39:55.259Z,21.23
2023-04-15T19:42:29.477Z,21.73
2023-04-15T19:45:02.237Z,21.23
2023-04-15T19:47:35.206Z,21.90
2023-04-15T19:50:09.989Z,20.90
2023-04-15T19:52:45.547Z,22.13
2023-04-15T19:55:18.298Z,22.23
2023-04-15T19:57:52.582Z,24.23
2023-04-15T20:00:25.595Z,22.97
2023-04-15T20:02:58.682Z,20.90
2023-04-15T20:05:31.619Z,22.03
2023-04-15T20:08:04.367Z,22.37
2023-04-15T20:10:37.344Z,22.33
2023-04-15T20:13:13.690Z,21.20
2023-04-15T20:15:46.472Z,20.27
2023-04-15T20:18:19.235Z,20.67
2023-04-15T20:20:52.554Z,21.27
2023-04-15T20:23:25.374Z,20.73
2023-04-15T20:25:58.260Z,21.47
2023-04-15T20:28:34.601Z,20.47
2023-04-15T20:31:08.519Z,19.97
2023-04-15T20:33:41.472Z,22.07
2023-04-15T20:36:14.385Z,21.03
2023-04-15T20:38:47.112Z,23.47
2023-04-15T20:41:21.533Z,21.47
2023-04-15T20:43:55.897Z,20.73
2023-04-15T20:46:29.127Z,21.13
2023-04-15T20:49:02.023Z,21.43
2023-04-15T20:51:39.592Z,22.50
2023-04-15T20:54:15.128Z,21.07
2023-04-15T20:56:47.964Z,21.57
2023-04-15T20:59:22.024Z,23.83
2023-04-15T21:01:56.840Z,23.57
2023-04-15T21:04:29.824Z,22.40
2023-04-15T21:07:02.588Z,22.83
2023-04-15T21:09:35.372Z,22.43
2023-04-15T21:12:08.278Z,22.13
2023-04-15T21:14:42.586Z,24.37
2023-04-15T21:17:16.751Z,24.77
2023-04-15T21:19:49.659Z,22.47
2023-04-15T21:22:22.517Z,21.50
2023-04-15T21:24:55.379Z,21.20
2023-04-15T21:27:28.137Z,20.77
2023-04-15T21:30:02.357Z,21.57
2023-04-15T21:32:42.954Z,21.70
2023-04-15T21:35:16.030Z,22.83
2023-04-15T21:37:51.904Z,22.10
2023-04-15T21:40:24.603Z,21.73
2023-04-15T21:42:57.522Z,21.73
2023-04-15T21:45:34.606Z,25.00
2023-04-15T21:48:08.670Z,23.07
2023-04-15T21:50:41.821Z,22.47
2023-04-15T21:53:15.381Z,21.63
2023-04-15T21:55:48.203Z,22.23
2023-04-15T21:58:20.946Z,23.47
2023-04-15T22:00:59.094Z,22.50
2023-04-15T22:03:33.806Z,22.13
2023-04-15T22:06:07.203Z,21.63
2023-04-15T22:08:52.408Z,22.73
2023-04-15T22:11:30.445Z,23.63
2023-04-15T22:14:03.271Z,23.30
2023-04-15T22:16:38.776Z,22.40
2023-04-15T22:19:11.923Z,23.60
2023-04-15T22:21:44.637Z,24.17
2023-04-15T22:24:38.164Z,24.70
2023-04-15T22:27:10.749Z,22.53
2023-04-15T22:29:43.491Z,23.97
2023-04-15T22:32:17.702Z,23.67
2023-04-15T22:34:50.545Z,26.23
2023-04-15T22:37:23.946Z,24.87
2023-04-15T22:39:56.676Z,26.80
2023-04-15T22:42:29.453Z,25.13
2023-04-15T22:45:02.277Z,25.27
2023-04-15T22:47:36.453Z,24.10
2023-04-15T22:50:11.153Z,27.13
2023-04-15T22:52:46.054Z,25.40
2023-04-15T22:55:18.960Z,25.20
2023-04-15T22:57:52.700Z,23.87
2023-04-15T23:00:26.507Z,26.23
2023-04-15T23:03:00.896Z,26.03
2023-04-15T23:05:36.090Z,26.03
2023-04-15T23:08:09.357Z,23.97
2023-04-15T23:10:44.642Z,26.77
2023-04-15T23:13:17.440Z,27.23
2023-04-15T23:15:55.277Z,26.90
2023-04-15T23:18:30.202Z,26.63
2023-04-15T23:21:04.082Z,26.37
2023-04-15T23:23:36.935Z,27.03
2023-04-15T23:26:09.721Z,28.03
2023-04-15T23:28:42.520Z,24.67
2023-04-15T23:31:15.329Z,27.80
2023-04-15T23:33:49.418Z,26.57
2023-04-15T23:36:22.277Z,26.33
2023-04-15T23:38:55.390Z,25.67
2023-04-15T23:41:28.116Z,32.20
2023-04-15T23:44:01.254Z,32.23
2023-04-15T23:46:36.873Z,30.03
2023-04-15T23:49:16.943Z,29.43
2023-04-15T23:51:51.018Z,26.67
2023-04-15T23:54:23.936Z,28.70
2023-04-15T23:57:00.328Z,28.30
2023-04-15T23:59:33.007Z,29.50
